RDS140 KATL-KBNA
Flight info
| Callsign | RDS140 |
|---|---|
| Flight time | 0h 43m |
| Altitude | 28000 |
| Route | PENCL2 PENCL DCT JAGIR SWFFT3 |
| Aircraft | B722/M-VGDW/C |
Departure
| Time | 2026-05-08 00:42 |
|---|---|
| Airport | Hartsfield Jackson Atlanta International Airport (KATL) |
Arrival
| Time | 2026-05-08 01:26 |
|---|---|
| Airport | Nashville International Airport (KBNA) |
| Time | Latitude | Longitude | Altitude | Speed | Heading |
|---|---|---|---|---|---|
| 2026-05-08 00:21 | 33.65444 | -84.41554 | 1010 ft | 0 kts | 32° |
| 2026-05-08 00:32 | 33.65443 | -84.41554 | 1010 ft | 1 kts | 32° |
| 2026-05-08 00:32 | 33.65424 | -84.41570 | 1010 ft | 4 kts | 36° |
| 2026-05-08 00:32 | 33.65404 | -84.41592 | 1010 ft | 4 kts | 52° |
| 2026-05-08 00:33 | 33.65393 | -84.41619 | 1010 ft | 4 kts | 79° |
| 2026-05-08 00:33 | 33.65397 | -84.41645 | 1010 ft | 2 kts | 121° |
| 2026-05-08 00:33 | 33.65400 | -84.41651 | 1010 ft | 0 kts | 122° |
| 2026-05-08 00:38 | 33.65399 | -84.41650 | 1010 ft | 1 kts | 122° |
| 2026-05-08 00:38 | 33.65377 | -84.41608 | 1010 ft | 8 kts | 122° |
| 2026-05-08 00:39 | 33.65343 | -84.41542 | 1010 ft | 10 kts | 122° |
| 2026-05-08 00:39 | 33.65303 | -84.41464 | 1010 ft | 12 kts | 121° |
| 2026-05-08 00:39 | 33.65254 | -84.41379 | 1010 ft | 13 kts | 139° |
| 2026-05-08 00:39 | 33.65167 | -84.41353 | 1010 ft | 13 kts | 166° |
| 2026-05-08 00:40 | 33.65120 | -84.41273 | 1009 ft | 13 kts | 89° |
| 2026-05-08 00:40 | 33.65120 | -84.41158 | 1009 ft | 14 kts | 90° |
| 2026-05-08 00:40 | 33.65119 | -84.41032 | 1010 ft | 15 kts | 97° |
| 2026-05-08 00:40 | 33.65063 | -84.40964 | 1010 ft | 0 kts | 176° |
| 2026-05-08 00:41 | 33.65026 | -84.40963 | 1010 ft | 10 kts | 180° |
| 2026-05-08 00:41 | 33.64960 | -84.40988 | 1009 ft | 11 kts | 246° |
| 2026-05-08 00:41 | 33.64955 | -84.41017 | 1009 ft | 0 kts | 268° |
| 2026-05-08 00:42 | 33.64954 | -84.41176 | 1010 ft | 57 kts | 270° |
| 2026-05-08 00:42 | 33.64954 | -84.41964 | 1010 ft | 127 kts | 270° |
| 2026-05-08 00:42 | 33.64957 | -84.43199 | 1190 ft | 160 kts | 272° |
| 2026-05-08 00:42 | 33.64918 | -84.44545 | 1842 ft | 167 kts | 271° |
| 2026-05-08 00:43 | 33.64915 | -84.46077 | 2060 ft | 196 kts | 277° |
| 2026-05-08 00:43 | 33.65259 | -84.47494 | 2222 ft | 154 kts | 299° |
| 2026-05-08 00:43 | 33.65718 | -84.48562 | 2325 ft | 148 kts | 296° |
| 2026-05-08 00:43 | 33.66201 | -84.49866 | 2540 ft | 194 kts | 295° |
| 2026-05-08 00:44 | 33.66814 | -84.51486 | 2780 ft | 229 kts | 295° |
| 2026-05-08 00:44 | 33.67464 | -84.53235 | 3565 ft | 227 kts | 295° |
| 2026-05-08 00:44 | 33.68061 | -84.54849 | 5030 ft | 188 kts | 292° |
| 2026-05-08 00:44 | 33.68639 | -84.56376 | 5574 ft | 223 kts | 296° |
| 2026-05-08 00:45 | 33.69812 | -84.57738 | 6199 ft | 243 kts | 331° |
| 2026-05-08 00:45 | 33.71420 | -84.58267 | 7442 ft | 244 kts | 345° |
| 2026-05-08 00:45 | 33.73176 | -84.58300 | 8232 ft | 260 kts | 355° |
| 2026-05-08 00:45 | 33.74959 | -84.58146 | 9360 ft | 252 kts | 354° |
| 2026-05-08 00:46 | 33.76722 | -84.58086 | 10232 ft | 252 kts | 349° |
| 2026-05-08 00:46 | 33.78489 | -84.58106 | 10958 ft | 259 kts | 347° |
| 2026-05-08 00:46 | 33.80332 | -84.58100 | 11437 ft | 270 kts | 349° |
| 2026-05-08 00:46 | 33.82174 | -84.58072 | 12354 ft | 264 kts | 347° |
| 2026-05-08 00:47 | 33.84007 | -84.58091 | 13190 ft | 264 kts | 345° |
| 2026-05-08 00:47 | 33.85806 | -84.58359 | 13841 ft | 256 kts | 333° |
| 2026-05-08 00:47 | 33.87491 | -84.58968 | 14480 ft | 252 kts | 328° |
| 2026-05-08 00:47 | 33.89170 | -84.59592 | 15130 ft | 258 kts | 330° |
| 2026-05-08 00:48 | 33.90936 | -84.60144 | 15759 ft | 262 kts | 331° |
| 2026-05-08 00:48 | 33.92710 | -84.60693 | 16389 ft | 264 kts | 330° |
| 2026-05-08 00:48 | 33.94495 | -84.61274 | 17015 ft | 267 kts | 330° |
| 2026-05-08 00:48 | 33.96301 | -84.61864 | 17628 ft | 270 kts | 330° |
| 2026-05-08 00:49 | 33.98123 | -84.62448 | 18235 ft | 272 kts | 329° |
| 2026-05-08 00:49 | 33.99961 | -84.63043 | 18736 ft | 275 kts | 329° |
| 2026-05-08 00:49 | 34.01812 | -84.63640 | 19228 ft | 277 kts | 329° |
| 2026-05-08 00:49 | 34.03676 | -84.64242 | 19737 ft | 278 kts | 329° |
| 2026-05-08 00:50 | 34.05551 | -84.64852 | 20242 ft | 280 kts | 329° |
| 2026-05-08 00:50 | 34.07433 | -84.65460 | 20753 ft | 281 kts | 329° |
| 2026-05-08 00:50 | 34.09331 | -84.66073 | 21273 ft | 283 kts | 329° |
| 2026-05-08 00:50 | 34.11243 | -84.66693 | 21757 ft | 287 kts | 329° |
| 2026-05-08 00:51 | 34.13178 | -84.67327 | 22166 ft | 292 kts | 329° |
| 2026-05-08 00:51 | 34.15149 | -84.67959 | 22689 ft | 294 kts | 329° |
| 2026-05-08 00:51 | 34.17128 | -84.68596 | 23204 ft | 295 kts | 329° |
| 2026-05-08 00:51 | 34.19119 | -84.69249 | 23695 ft | 299 kts | 329° |
| 2026-05-08 00:52 | 34.21136 | -84.69906 | 24216 ft | 301 kts | 329° |
| 2026-05-08 00:52 | 34.23167 | -84.70563 | 24755 ft | 303 kts | 329° |
| 2026-05-08 00:52 | 34.25204 | -84.71255 | 25249 ft | 301 kts | 324° |
| 2026-05-08 00:52 | 34.27047 | -84.72304 | 25739 ft | 288 kts | 314° |
| 2026-05-08 00:53 | 34.28696 | -84.73635 | 26273 ft | 284 kts | 311° |
| 2026-05-08 00:53 | 34.30348 | -84.74993 | 26801 ft | 291 kts | 313° |
| 2026-05-08 00:53 | 34.32092 | -84.76286 | 27348 ft | 296 kts | 314° |
| 2026-05-08 00:53 | 34.33868 | -84.77578 | 27872 ft | 299 kts | 314° |
| 2026-05-08 00:54 | 34.35668 | -84.78947 | 28002 ft | 315 kts | 313° |
| 2026-05-08 00:54 | 34.37583 | -84.80418 | 28010 ft | 338 kts | 314° |
| 2026-05-08 00:54 | 34.39634 | -84.81971 | 28005 ft | 358 kts | 315° |
| 2026-05-08 00:54 | 34.41815 | -84.83614 | 28003 ft | 381 kts | 316° |
| 2026-05-08 00:55 | 34.44135 | -84.85345 | 27991 ft | 402 kts | 316° |
| 2026-05-08 00:55 | 34.46569 | -84.87178 | 28048 ft | 422 kts | 316° |
| 2026-05-08 00:55 | 34.49114 | -84.89108 | 28037 ft | 440 kts | 317° |
| 2026-05-08 00:56 | 34.54397 | -84.93074 | 28021 ft | 449 kts | 317° |
| 2026-05-08 00:56 | 34.59674 | -84.97079 | 28032 ft | 442 kts | 317° |
| 2026-05-08 00:57 | 34.64755 | -85.00919 | 28031 ft | 425 kts | 316° |
| 2026-05-08 00:57 | 34.69652 | -85.04701 | 28013 ft | 406 kts | 315° |
| 2026-05-08 00:57 | 34.71963 | -85.06475 | 28016 ft | 388 kts | 315° |
| 2026-05-08 00:58 | 34.74227 | -85.08229 | 28005 ft | 387 kts | 315° |
| 2026-05-08 00:58 | 34.76496 | -85.10010 | 27916 ft | 391 kts | 315° |
| 2026-05-08 00:58 | 34.78782 | -85.11768 | 27665 ft | 389 kts | 316° |
| 2026-05-08 00:58 | 34.81079 | -85.13525 | 27413 ft | 388 kts | 315° |
| 2026-05-08 00:59 | 34.83345 | -85.15309 | 27173 ft | 388 kts | 315° |
| 2026-05-08 00:59 | 34.85616 | -85.17081 | 26929 ft | 388 kts | 316° |
| 2026-05-08 00:59 | 34.87899 | -85.18836 | 26702 ft | 388 kts | 316° |
| 2026-05-08 00:59 | 34.90175 | -85.20597 | 26509 ft | 386 kts | 316° |
| 2026-05-08 01:00 | 34.92426 | -85.22352 | 26255 ft | 383 kts | 316° |
| 2026-05-08 01:00 | 34.94670 | -85.24101 | 26015 ft | 383 kts | 316° |
| 2026-05-08 01:00 | 34.96920 | -85.25850 | 25776 ft | 383 kts | 316° |
| 2026-05-08 01:00 | 34.99166 | -85.27597 | 25542 ft | 382 kts | 317° |
| 2026-05-08 01:01 | 35.01408 | -85.29345 | 25310 ft | 382 kts | 317° |
| 2026-05-08 01:01 | 35.03651 | -85.31095 | 25078 ft | 382 kts | 317° |
| 2026-05-08 01:01 | 35.05888 | -85.32839 | 24832 ft | 382 kts | 317° |
| 2026-05-08 01:01 | 35.08119 | -85.34579 | 24609 ft | 375 kts | 317° |
| 2026-05-08 01:02 | 35.10289 | -85.36265 | 24374 ft | 368 kts | 317° |
| 2026-05-08 01:02 | 35.12429 | -85.37946 | 24148 ft | 365 kts | 317° |
| 2026-05-08 01:02 | 35.14567 | -85.39631 | 23916 ft | 366 kts | 317° |
| 2026-05-08 01:02 | 35.16589 | -85.41442 | 23738 ft | 356 kts | 311° |
| 2026-05-08 01:03 | 35.18346 | -85.43544 | 23504 ft | 354 kts | 305° |
| 2026-05-08 01:03 | 35.19913 | -85.45731 | 23256 ft | 332 kts | 304° |
| 2026-05-08 01:03 | 35.21439 | -85.47762 | 22965 ft | 317 kts | 306° |
| 2026-05-08 01:03 | 35.22952 | -85.49619 | 22675 ft | 299 kts | 307° |
| 2026-05-08 01:04 | 35.24374 | -85.51398 | 22372 ft | 291 kts | 305° |
| 2026-05-08 01:04 | 35.25824 | -85.53307 | 22133 ft | 323 kts | 306° |
| 2026-05-08 01:04 | 35.27418 | -85.55354 | 22121 ft | 323 kts | 307° |
| 2026-05-08 01:04 | 35.28983 | -85.57297 | 20872 ft | 329 kts | 307° |
| 2026-05-08 01:05 | 35.30575 | -85.59352 | 19892 ft | 331 kts | 307° |
| 2026-05-08 01:05 | 35.32146 | -85.61363 | 19122 ft | 324 kts | 307° |
| 2026-05-08 01:05 | 35.33704 | -85.63352 | 18229 ft | 323 kts | 307° |
| 2026-05-08 01:05 | 35.35255 | -85.65336 | 17339 ft | 320 kts | 307° |
| 2026-05-08 01:06 | 35.36764 | -85.67267 | 16561 ft | 316 kts | 308° |
| 2026-05-08 01:06 | 35.38280 | -85.69213 | 15750 ft | 315 kts | 308° |
| 2026-05-08 01:06 | 35.39788 | -85.71147 | 15088 ft | 312 kts | 308° |
| 2026-05-08 01:06 | 35.41280 | -85.73055 | 15051 ft | 304 kts | 308° |
| 2026-05-08 01:07 | 35.42722 | -85.74911 | 15068 ft | 306 kts | 308° |
| 2026-05-08 01:07 | 35.44193 | -85.76805 | 15049 ft | 307 kts | 308° |
| 2026-05-08 01:07 | 35.45669 | -85.78699 | 15059 ft | 307 kts | 308° |
| 2026-05-08 01:07 | 35.47147 | -85.80598 | 15061 ft | 307 kts | 308° |
| 2026-05-08 01:08 | 35.48621 | -85.82497 | 15011 ft | 307 kts | 308° |
| 2026-05-08 01:08 | 35.50092 | -85.84390 | 15007 ft | 307 kts | 308° |
| 2026-05-08 01:08 | 35.51566 | -85.86287 | 15004 ft | 307 kts | 308° |
| 2026-05-08 01:08 | 35.53035 | -85.88179 | 15004 ft | 307 kts | 308° |
| 2026-05-08 01:09 | 35.54505 | -85.90078 | 15004 ft | 307 kts | 308° |
| 2026-05-08 01:09 | 35.55971 | -85.91981 | 15005 ft | 307 kts | 308° |
| 2026-05-08 01:09 | 35.57412 | -85.93911 | 15005 ft | 306 kts | 307° |
| 2026-05-08 01:09 | 35.58846 | -85.95849 | 15009 ft | 306 kts | 307° |
| 2026-05-08 01:10 | 35.60289 | -85.97779 | 15007 ft | 307 kts | 308° |
| 2026-05-08 01:10 | 35.61734 | -85.99707 | 15006 ft | 307 kts | 308° |
| 2026-05-08 01:10 | 35.63176 | -86.01639 | 14999 ft | 307 kts | 307° |
| 2026-05-08 01:10 | 35.64620 | -86.03578 | 14728 ft | 307 kts | 308° |
| 2026-05-08 01:11 | 35.66059 | -86.05505 | 14514 ft | 305 kts | 308° |
| 2026-05-08 01:11 | 35.67492 | -86.07426 | 14284 ft | 304 kts | 308° |
| 2026-05-08 01:11 | 35.68920 | -86.09344 | 14048 ft | 303 kts | 307° |
| 2026-05-08 01:11 | 35.70151 | -86.11415 | 13813 ft | 298 kts | 294° |
| 2026-05-08 01:12 | 35.70824 | -86.13810 | 13522 ft | 297 kts | 280° |
| 2026-05-08 01:12 | 35.71003 | -86.16244 | 12839 ft | 284 kts | 273° |
| 2026-05-08 01:12 | 35.70938 | -86.18723 | 11332 ft | 299 kts | 268° |
| 2026-05-08 01:12 | 35.70773 | -86.21285 | 10441 ft | 300 kts | 269° |
| 2026-05-08 01:13 | 35.70697 | -86.23832 | 9633 ft | 297 kts | 271° |
| 2026-05-08 01:13 | 35.70664 | -86.26376 | 8727 ft | 298 kts | 270° |
| 2026-05-08 01:13 | 35.70596 | -86.28929 | 7893 ft | 298 kts | 269° |
| 2026-05-08 01:13 | 35.70513 | -86.31474 | 7102 ft | 298 kts | 269° |
| 2026-05-08 01:14 | 35.70438 | -86.34005 | 6203 ft | 295 kts | 269° |
| 2026-05-08 01:14 | 35.70374 | -86.36536 | 5099 ft | 296 kts | 269° |
| 2026-05-08 01:14 | 35.70302 | -86.39047 | 4146 ft | 295 kts | 269° |
| 2026-05-08 01:14 | 35.70233 | -86.41339 | 5034 ft | 242 kts | 269° |
| 2026-05-08 01:15 | 35.70171 | -86.43303 | 5442 ft | 231 kts | 270° |
| 2026-05-08 01:15 | 35.70120 | -86.45232 | 5562 ft | 224 kts | 269° |
| 2026-05-08 01:15 | 35.70069 | -86.47157 | 5682 ft | 226 kts | 270° |
| 2026-05-08 01:15 | 35.70014 | -86.49094 | 5817 ft | 227 kts | 269° |
| 2026-05-08 01:16 | 35.69956 | -86.51039 | 5953 ft | 227 kts | 269° |
| 2026-05-08 01:16 | 35.69898 | -86.52984 | 5996 ft | 227 kts | 269° |
| 2026-05-08 01:16 | 35.69875 | -86.54925 | 5992 ft | 227 kts | 276° |
| 2026-05-08 01:16 | 35.70197 | -86.56814 | 5992 ft | 226 kts | 289° |
| 2026-05-08 01:17 | 35.70859 | -86.58585 | 5820 ft | 229 kts | 309° |
| 2026-05-08 01:17 | 35.72021 | -86.59868 | 5375 ft | 224 kts | 324° |
| 2026-05-08 01:17 | 35.73298 | -86.60980 | 4884 ft | 225 kts | 325° |
| 2026-05-08 01:17 | 35.74543 | -86.62087 | 4328 ft | 220 kts | 324° |
| 2026-05-08 01:18 | 35.75780 | -86.63202 | 3639 ft | 220 kts | 324° |
| 2026-05-08 01:18 | 35.77008 | -86.64305 | 3024 ft | 218 kts | 324° |
| 2026-05-08 01:18 | 35.78228 | -86.65399 | 2724 ft | 215 kts | 325° |
| 2026-05-08 01:18 | 35.79430 | -86.66477 | 2441 ft | 213 kts | 325° |
| 2026-05-08 01:19 | 35.80625 | -86.67547 | 2166 ft | 212 kts | 324° |
| 2026-05-08 01:19 | 35.81814 | -86.68617 | 2172 ft | 213 kts | 325° |
| 2026-05-08 01:19 | 35.83008 | -86.69692 | 2315 ft | 214 kts | 325° |
| 2026-05-08 01:19 | 35.84217 | -86.70781 | 2460 ft | 219 kts | 324° |
| 2026-05-08 01:20 | 35.85504 | -86.71935 | 2688 ft | 235 kts | 325° |
| 2026-05-08 01:20 | 35.86790 | -86.73098 | 3126 ft | 226 kts | 324° |
| 2026-05-08 01:20 | 35.88081 | -86.74269 | 3401 ft | 238 kts | 324° |
| 2026-05-08 01:20 | 35.89411 | -86.75442 | 3990 ft | 236 kts | 329° |
| 2026-05-08 01:21 | 35.90984 | -86.75798 | 4003 ft | 234 kts | 11° |
| 2026-05-08 01:21 | 35.92424 | -86.74871 | 4028 ft | 232 kts | 34° |
| 2026-05-08 01:21 | 35.93712 | -86.73824 | 4022 ft | 215 kts | 26° |
| 2026-05-08 01:21 | 35.95070 | -86.73161 | 3914 ft | 192 kts | 15° |
| 2026-05-08 01:22 | 35.96311 | -86.72747 | 3671 ft | 181 kts | 15° |
| 2026-05-08 01:22 | 35.97516 | -86.72274 | 3444 ft | 182 kts | 18° |
| 2026-05-08 01:22 | 35.98713 | -86.71782 | 3202 ft | 181 kts | 16° |
| 2026-05-08 01:22 | 35.99906 | -86.71323 | 2962 ft | 176 kts | 17° |
| 2026-05-08 01:23 | 36.01008 | -86.70861 | 2735 ft | 161 kts | 17° |
| 2026-05-08 01:23 | 36.02003 | -86.70486 | 2515 ft | 144 kts | 15° |
| 2026-05-08 01:23 | 36.02935 | -86.70108 | 2344 ft | 140 kts | 17° |
| 2026-05-08 01:23 | 36.03855 | -86.69728 | 2159 ft | 139 kts | 15° |
| 2026-05-08 01:24 | 36.04782 | -86.69367 | 1973 ft | 140 kts | 17° |
| 2026-05-08 01:24 | 36.05386 | -86.69112 | 1856 ft | 137 kts | 17° |
| 2026-05-08 01:24 | 36.06308 | -86.68764 | 1659 ft | 139 kts | 15° |
| 2026-05-08 01:24 | 36.07230 | -86.68387 | 1466 ft | 138 kts | 18° |
| 2026-05-08 01:25 | 36.08491 | -86.67880 | 1229 ft | 147 kts | 17° |
| 2026-05-08 01:25 | 36.09102 | -86.67636 | 1122 ft | 133 kts | 17° |
| 2026-05-08 01:25 | 36.10009 | -86.67274 | 935 ft | 138 kts | 15° |
| 2026-05-08 01:25 | 36.10899 | -86.66915 | 729 ft | 135 kts | 17° |
| 2026-05-08 01:26 | 36.11759 | -86.66574 | 599 ft | 121 kts | 16° |
| 2026-05-08 01:26 | 36.12431 | -86.66301 | 581 ft | 80 kts | 18° |
| 2026-05-08 01:26 | 36.12866 | -86.66129 | 576 ft | 48 kts | 18° |
| 2026-05-08 01:26 | 36.13010 | -86.66130 | 574 ft | 13 kts | 302° |
| 2026-05-08 01:27 | 36.13014 | -86.66158 | 575 ft | 0 kts | 278° |
| 2026-05-08 01:27 | 36.13008 | -86.66206 | 576 ft | 10 kts | 228° |
| 2026-05-08 01:27 | 36.12915 | -86.66257 | 574 ft | 20 kts | 198° |
| 2026-05-08 01:28 | 36.12744 | -86.66319 | 577 ft | 30 kts | 197° |
| 2026-05-08 01:28 | 36.12552 | -86.66397 | 580 ft | 29 kts | 199° |
| 2026-05-08 01:28 | 36.12363 | -86.66475 | 579 ft | 27 kts | 198° |
| 2026-05-08 01:28 | 36.12278 | -86.66571 | 579 ft | 18 kts | 288° |
| 2026-05-08 01:29 | 36.12327 | -86.66723 | 573 ft | 21 kts | 288° |
| 2026-05-08 01:29 | 36.12396 | -86.66898 | 566 ft | 23 kts | 315° |
| 2026-05-08 01:29 | 36.12497 | -86.66951 | 572 ft | 14 kts | 8° |
| 2026-05-08 01:29 | 36.12590 | -86.66961 | 573 ft | 14 kts | 355° |
| 2026-05-08 01:30 | 36.12684 | -86.66946 | 570 ft | 13 kts | 10° |
| 2026-05-08 01:30 | 36.12736 | -86.66938 | 573 ft | 0 kts | 2° |